ASN logo
ASN Wikibase Occurrence # 222341
Last updated: 16 August 2019
This information is added by users of ASN. Neither ASN nor the Flight Safety Foundation are responsible for the completeness or correctness of this information. If you feel this information is incomplete or incorrect, you can submit corrected information.

Date:27-FEB-2019
Time:04:28 LT
Type:Silhouette image of generic E50P model; specific model in this crash may look slightly different
Embraer Phenom 100
Owner/operator:Quest Diagnostics
Registration: N649DX
C/n / msn: 50000194
Fatalities:Fatalities: 0 / Occupants:
Other fatalities:0
Aircraft damage: None
Location:Kansas City-Charles B. Wheeler Downtown Airport, MO (MKC/KMKC) -   United States of America
Phase: Landing
Nature:Unknown
Departure airport:Chicago-Dupage County Airport, IL (DPA/KDPA)
Destination airport:Kansas City-Charles B. Wheeler Downtown Airport, MO (MKC/KMKC)
Narrative:
An Embraer Phenom 100 jet overran runway 19 after landing at Kansas City-Charles B. Wheeler Downtown Airport, USA. The aircraft rolled onto the Engineered materials arrestor system (EMAS) area and came to a stop.


Weather about the time of the incident (1028Z):
KMKC 271036Z 33012KT 3SM BR OVC005 M03/M06 A3022 RMK AO2 I1001 T10331056
KMKC 271003Z 31007KT 2 1/2SM BR OVC004 M03/M04 A3021 RMK AO2 T10281044

Sources:

https://www.kctv5.com/news/plane-slides-off-runway-at-charles-b-wheeler-downtown-airport/article_c9bee7aa-3aa1-11e9-aa3f-6bd2bfba6f30.html
https://www.kansascity.com/news/local/article226857969.html
https://www.flightradar24.com/data/aircraft/n649dx#1fa2dabf

List of aircraft safely stopped by EMAS during runway overrun incidents:
https://news.aviation-safety.net/2019/02/27/list-of-aircraft-safely-stopped-by-emas-during-runway-overrun-incidents/


Revision history:

Date/timeContributorUpdates
27-Feb-2019 17:26 harro Added
27-Feb-2019 17:29 harro Updated [Time, Location, Nature, Embed code, Narrative]
27-Feb-2019 18:04 harro Updated [Source, Damage]

Corrections or additions? ... Edit this accident description